sensor_id;sensor_type;location;lat;lon;timestamp;P1;durP1;ratioP1;P2;durP2;ratioP2
61330;SDS011;71993;52.478;-1.918;2023-09-18T00:00:47;9.35;;;7.60;;
61330;SDS011;71993;52.478;-1.918;2023-09-18T00:03:26;10.73;;;7.70;;
61330;SDS011;71993;52.478;-1.918;2023-09-18T00:05:59;8.43;;;7.60;;
61330;SDS011;71993;52.478;-1.918;2023-09-18T00:08:43;9.00;;;7.47;;
61330;SDS011;71993;52.478;-1.918;2023-09-18T00:11:14;9.30;;;8.30;;
61330;SDS011;71993;52.478;-1.918;2023-09-18T00:13:48;9.55;;;8.07;;
61330;SDS011;71993;52.478;-1.918;2023-09-18T00:16:20;10.27;;;8.70;;
61330;SDS011;71993;52.478;-1.918;2023-09-18T00:19:07;11.02;;;9.48;;
61330;SDS011;71993;52.478;-1.918;2023-09-18T00:21:51;9.75;;;8.70;;
61330;SDS011;71993;52.478;-1.918;2023-09-18T00:24:37;10.07;;;8.88;;
61330;SDS011;71993;52.478;-1.918;2023-09-18T00:27:21;13.50;;;10.73;;
61330;SDS011;71993;52.478;-1.918;2023-09-18T00:29:58;14.15;;;10.82;;
61330;SDS011;71993;52.478;-1.918;2023-09-18T00:32:42;13.45;;;9.65;;
61330;SDS011;71993;52.478;-1.918;2023-09-18T00:35:27;10.93;;;8.55;;
61330;SDS011;71993;52.478;-1.918;2023-09-18T00:38:11;12.13;;;9.02;;
61330;SDS011;71993;52.478;-1.918;2023-09-18T00:40:57;14.48;;;11.30;;
61330;SDS011;71993;52.478;-1.918;2023-09-18T00:43:40;12.43;;;9.88;;
61330;SDS011;71993;52.478;-1.918;2023-09-18T00:46:25;13.60;;;10.27;;
61330;SDS011;71993;52.478;-1.918;2023-09-18T00:49:08;12.20;;;9.65;;
61330;SDS011;71993;52.478;-1.918;2023-09-18T00:51:52;12.18;;;10.10;;
61330;SDS011;71993;52.478;-1.918;2023-09-18T00:54:36;12.60;;;10.45;;
61330;SDS011;71993;52.478;-1.918;2023-09-18T00:57:23;13.25;;;10.20;;
61330;SDS011;71993;52.478;-1.918;2023-09-18T01:00:07;15.70;;;10.52;;
61330;SDS011;71993;52.478;-1.918;2023-09-18T01:02:51;11.02;;;8.75;;
61330;SDS011;71993;52.478;-1.918;2023-09-18T01:05:34;10.55;;;9.38;;
61330;SDS011;71993;52.478;-1.918;2023-09-18T01:08:18;10.82;;;8.98;;
61330;SDS011;71993;52.478;-1.918;2023-09-18T01:11:03;10.63;;;8.68;;
61330;SDS011;71993;52.478;-1.918;2023-09-18T01:13:41;10.32;;;8.73;;
61330;SDS011;71993;52.478;-1.918;2023-09-18T01:16:17;10.73;;;8.55;;
61330;SDS011;71993;52.478;-1.918;2023-09-18T01:18:55;11.40;;;8.63;;
61330;SDS011;71993;52.478;-1.918;2023-09-18T01:21:26;10.80;;;8.15;;
61330;SDS011;71993;52.478;-1.918;2023-09-18T01:24:00;7.93;;;7.10;;
61330;SDS011;71993;52.478;-1.918;2023-09-18T01:26:30;8.60;;;7.43;;
61330;SDS011;71993;52.478;-1.918;2023-09-18T01:29:01;8.55;;;7.20;;
61330;SDS011;71993;52.478;-1.918;2023-09-18T01:31:33;9.38;;;7.63;;
61330;SDS011;71993;52.478;-1.918;2023-09-18T01:34:04;10.25;;;8.05;;
61330;SDS011;71993;52.478;-1.918;2023-09-18T01:36:49;8.05;;;6.65;;
61330;SDS011;71993;52.478;-1.918;2023-09-18T01:39:35;8.73;;;6.63;;
61330;SDS011;71993;52.478;-1.918;2023-09-18T01:42:20;7.85;;;6.53;;
61330;SDS011;71993;52.478;-1.918;2023-09-18T01:45:05;8.70;;;7.22;;
61330;SDS011;71993;52.478;-1.918;2023-09-18T01:47:49;9.63;;;7.35;;
61330;SDS011;71993;52.478;-1.918;2023-09-18T01:50:33;9.27;;;7.75;;
61330;SDS011;71993;52.478;-1.918;2023-09-18T01:53:16;8.02;;;6.60;;
61330;SDS011;71993;52.478;-1.918;2023-09-18T01:56:02;9.10;;;7.05;;
61330;SDS011;71993;52.478;-1.918;2023-09-18T01:58:33;9.75;;;7.03;;
61330;SDS011;71993;52.478;-1.918;2023-09-18T02:01:04;7.45;;;6.65;;
61330;SDS011;71993;52.478;-1.918;2023-09-18T02:03:36;8.55;;;6.90;;
61330;SDS011;71993;52.478;-1.918;2023-09-18T02:06:09;8.15;;;7.00;;
61330;SDS011;71993;52.478;-1.918;2023-09-18T02:08:41;8.30;;;6.50;;
61330;SDS011;71993;52.478;-1.918;2023-09-18T02:11:14;7.82;;;6.45;;
61330;SDS011;71993;52.478;-1.918;2023-09-18T02:13:45;8.55;;;7.13;;
61330;SDS011;71993;52.478;-1.918;2023-09-18T02:16:18;7.75;;;6.65;;
61330;SDS011;71993;52.478;-1.918;2023-09-18T02:18:54;7.45;;;6.60;;
61330;SDS011;71993;52.478;-1.918;2023-09-18T02:21:25;7.30;;;6.60;;
61330;SDS011;71993;52.478;-1.918;2023-09-18T02:23:56;7.10;;;6.40;;
61330;SDS011;71993;52.478;-1.918;2023-09-18T02:26:29;8.45;;;7.45;;
61330;SDS011;71993;52.478;-1.918;2023-09-18T02:29:02;8.40;;;6.68;;
61330;SDS011;71993;52.478;-1.918;2023-09-18T02:31:34;8.40;;;6.80;;
61330;SDS011;71993;52.478;-1.918;2023-09-18T02:34:06;8.10;;;7.10;;
61330;SDS011;71993;52.478;-1.918;2023-09-18T02:36:38;7.25;;;6.50;;
61330;SDS011;71993;52.478;-1.918;2023-09-18T02:39:10;7.30;;;6.60;;
61330;SDS011;71993;52.478;-1.918;2023-09-18T02:41:44;7.57;;;6.25;;
61330;SDS011;71993;52.478;-1.918;2023-09-18T02:44:15;8.27;;;6.50;;
61330;SDS011;71993;52.478;-1.918;2023-09-18T02:46:47;7.30;;;6.60;;
61330;SDS011;71993;52.478;-1.918;2023-09-18T02:49:18;8.73;;;6.38;;
61330;SDS011;71993;52.478;-1.918;2023-09-18T02:51:49;7.03;;;6.10;;
61330;SDS011;71993;52.478;-1.918;2023-09-18T02:54:21;8.30;;;6.53;;
61330;SDS011;71993;52.478;-1.918;2023-09-18T02:56:55;7.80;;;6.45;;
61330;SDS011;71993;52.478;-1.918;2023-09-18T02:59:24;8.40;;;6.85;;
61330;SDS011;71993;52.478;-1.918;2023-09-18T03:02:08;8.13;;;6.32;;
61330;SDS011;71993;52.478;-1.918;2023-09-18T03:04:52;7.18;;;6.32;;
61330;SDS011;71993;52.478;-1.918;2023-09-18T03:07:36;8.30;;;6.28;;
61330;SDS011;71993;52.478;-1.918;2023-09-18T03:10:21;6.60;;;5.90;;
61330;SDS011;71993;52.478;-1.918;2023-09-18T03:12:54;7.30;;;6.30;;
61330;SDS011;71993;52.478;-1.918;2023-09-18T03:15:27;8.27;;;6.20;;
61330;SDS011;71993;52.478;-1.918;2023-09-18T03:17:58;6.03;;;5.43;;
61330;SDS011;71993;52.478;-1.918;2023-09-18T03:20:29;6.00;;;5.40;;
61330;SDS011;71993;52.478;-1.918;2023-09-18T03:23:01;6.07;;;5.47;;
61330;SDS011;71993;52.478;-1.918;2023-09-18T03:25:33;6.25;;;5.35;;
61330;SDS011;71993;52.478;-1.918;2023-09-18T03:28:08;6.57;;;5.13;;
61330;SDS011;71993;52.478;-1.918;2023-09-18T03:30:39;8.35;;;6.75;;
61330;SDS011;71993;52.478;-1.918;2023-09-18T03:33:10;6.97;;;6.28;;
61330;SDS011;71993;52.478;-1.918;2023-09-18T03:35:47;7.22;;;5.90;;
61330;SDS011;71993;52.478;-1.918;2023-09-18T03:38:21;6.35;;;5.47;;
61330;SDS011;71993;52.478;-1.918;2023-09-18T03:40:52;6.30;;;5.00;;
61330;SDS011;71993;52.478;-1.918;2023-09-18T03:43:26;5.75;;;5.15;;
61330;SDS011;71993;52.478;-1.918;2023-09-18T03:46:03;6.57;;;5.15;;
61330;SDS011;71993;52.478;-1.918;2023-09-18T03:48:50;6.90;;;5.68;;
61330;SDS011;71993;52.478;-1.918;2023-09-18T03:51:21;5.72;;;5.07;;
61330;SDS011;71993;52.478;-1.918;2023-09-18T03:53:52;5.40;;;4.90;;
61330;SDS011;71993;52.478;-1.918;2023-09-18T03:56:24;5.25;;;4.75;;
61330;SDS011;71993;52.478;-1.918;2023-09-18T03:58:57;5.38;;;4.72;;
61330;SDS011;71993;52.478;-1.918;2023-09-18T04:01:30;5.43;;;4.80;;
61330;SDS011;71993;52.478;-1.918;2023-09-18T04:04:01;6.68;;;5.03;;
61330;SDS011;71993;52.478;-1.918;2023-09-18T04:06:40;5.50;;;4.45;;
61330;SDS011;71993;52.478;-1.918;2023-09-18T04:09:12;5.25;;;4.53;;
61330;SDS011;71993;52.478;-1.918;2023-09-18T04:11:46;5.45;;;4.40;;
61330;SDS011;71993;52.478;-1.918;2023-09-18T04:14:23;5.30;;;4.80;;
61330;SDS011;71993;52.478;-1.918;2023-09-18T04:16:55;5.85;;;4.57;;
61330;SDS011;71993;52.478;-1.918;2023-09-18T04:19:31;5.88;;;5.07;;
61330;SDS011;71993;52.478;-1.918;2023-09-18T04:22:03;4.95;;;4.35;;
61330;SDS011;71993;52.478;-1.918;2023-09-18T04:24:34;5.20;;;4.70;;
61330;SDS011;71993;52.478;-1.918;2023-09-18T04:27:04;5.63;;;4.50;;
61330;SDS011;71993;52.478;-1.918;2023-09-18T04:29:38;4.95;;;4.47;;
61330;SDS011;71993;52.478;-1.918;2023-09-18T04:32:08;5.47;;;4.78;;
61330;SDS011;71993;52.478;-1.918;2023-09-18T04:34:39;5.80;;;4.88;;
61330;SDS011;71993;52.478;-1.918;2023-09-18T04:37:10;5.40;;;4.90;;
61330;SDS011;71993;52.478;-1.918;2023-09-18T04:39:42;5.20;;;4.70;;
61330;SDS011;71993;52.478;-1.918;2023-09-18T04:42:12;5.57;;;4.55;;
61330;SDS011;71993;52.478;-1.918;2023-09-18T04:44:47;6.07;;;4.50;;
61330;SDS011;71993;52.478;-1.918;2023-09-18T04:47:30;4.60;;;4.20;;
61330;SDS011;71993;52.478;-1.918;2023-09-18T04:50:14;5.85;;;4.63;;
61330;SDS011;71993;52.478;-1.918;2023-09-18T04:52:58;4.88;;;4.38;;
61330;SDS011;71993;52.478;-1.918;2023-09-18T04:55:42;4.80;;;4.20;;
61330;SDS011;71993;52.478;-1.918;2023-09-18T04:58:27;6.47;;;4.30;;
61330;SDS011;71993;52.478;-1.918;2023-09-18T05:01:13;5.88;;;4.55;;
61330;SDS011;71993;52.478;-1.918;2023-09-18T05:03:45;4.82;;;4.22;;
61330;SDS011;71993;52.478;-1.918;2023-09-18T05:06:16;5.15;;;4.15;;
61330;SDS011;71993;52.478;-1.918;2023-09-18T05:08:46;4.97;;;4.30;;
61330;SDS011;71993;52.478;-1.918;2023-09-18T05:11:17;5.07;;;4.38;;
61330;SDS011;71993;52.478;-1.918;2023-09-18T05:13:48;4.10;;;3.70;;
61330;SDS011;71993;52.478;-1.918;2023-09-18T05:16:23;5.30;;;4.10;;
61330;SDS011;71993;52.478;-1.918;2023-09-18T05:18:53;4.57;;;4.00;;
61330;SDS011;71993;52.478;-1.918;2023-09-18T05:21:24;3.83;;;3.40;;
61330;SDS011;71993;52.478;-1.918;2023-09-18T05:23:54;4.97;;;3.80;;
61330;SDS011;71993;52.478;-1.918;2023-09-18T05:26:25;4.15;;;3.53;;
61330;SDS011;71993;52.478;-1.918;2023-09-18T05:28:57;3.75;;;3.45;;
61330;SDS011;71993;52.478;-1.918;2023-09-18T05:31:32;4.57;;;3.38;;
61330;SDS011;71993;52.478;-1.918;2023-09-18T05:34:03;5.63;;;4.00;;
61330;SDS011;71993;52.478;-1.918;2023-09-18T05:36:33;4.93;;;3.58;;
61330;SDS011;71993;52.478;-1.918;2023-09-18T05:39:05;5.90;;;4.32;;
61330;SDS011;71993;52.478;-1.918;2023-09-18T05:41:38;4.63;;;3.70;;
61330;SDS011;71993;52.478;-1.918;2023-09-18T05:44:09;4.35;;;3.38;;
61330;SDS011;71993;52.478;-1.918;2023-09-18T05:46:46;4.45;;;3.83;;
61330;SDS011;71993;52.478;-1.918;2023-09-18T05:49:16;4.68;;;3.70;;
61330;SDS011;71993;52.478;-1.918;2023-09-18T05:51:47;4.38;;;3.40;;
61330;SDS011;71993;52.478;-1.918;2023-09-18T05:54:18;5.57;;;3.47;;
61330;SDS011;71993;52.478;-1.918;2023-09-18T05:56:48;5.13;;;3.83;;
61330;SDS011;71993;52.478;-1.918;2023-09-18T05:59:20;5.78;;;3.78;;
61330;SDS011;71993;52.478;-1.918;2023-09-18T06:01:53;5.18;;;3.67;;
61330;SDS011;71993;52.478;-1.918;2023-09-18T06:04:25;4.85;;;3.78;;
61330;SDS011;71993;52.478;-1.918;2023-09-18T06:06:55;5.88;;;4.00;;
61330;SDS011;71993;52.478;-1.918;2023-09-18T06:09:26;5.32;;;3.65;;
61330;SDS011;71993;52.478;-1.918;2023-09-18T06:11:56;5.15;;;3.40;;
61330;SDS011;71993;52.478;-1.918;2023-09-18T06:14:27;5.28;;;3.90;;
61330;SDS011;71993;52.478;-1.918;2023-09-18T06:17:00;5.70;;;3.72;;
61330;SDS011;71993;52.478;-1.918;2023-09-18T06:19:30;6.22;;;4.25;;
61330;SDS011;71993;52.478;-1.918;2023-09-18T06:22:01;4.88;;;3.75;;
61330;SDS011;71993;52.478;-1.918;2023-09-18T06:24:32;5.22;;;4.18;;
61330;SDS011;71993;52.478;-1.918;2023-09-18T06:27:02;5.18;;;4.10;;
61330;SDS011;71993;52.478;-1.918;2023-09-18T06:29:33;5.72;;;4.10;;
61330;SDS011;71993;52.478;-1.918;2023-09-18T06:32:07;5.80;;;4.30;;
61330;SDS011;71993;52.478;-1.918;2023-09-18T06:34:38;5.75;;;4.22;;
61330;SDS011;71993;52.478;-1.918;2023-09-18T06:37:11;4.43;;;3.90;;
61330;SDS011;71993;52.478;-1.918;2023-09-18T06:39:43;4.57;;;3.80;;
61330;SDS011;71993;52.478;-1.918;2023-09-18T06:42:14;5.68;;;4.28;;
61330;SDS011;71993;52.478;-1.918;2023-09-18T06:44:46;6.15;;;4.55;;
61330;SDS011;71993;52.478;-1.918;2023-09-18T06:47:21;5.85;;;4.72;;
61330;SDS011;71993;52.478;-1.918;2023-09-18T06:50:08;5.25;;;4.07;;
61330;SDS011;71993;52.478;-1.918;2023-09-18T06:52:41;5.63;;;4.18;;
61330;SDS011;71993;52.478;-1.918;2023-09-18T06:55:13;4.93;;;3.58;;
61330;SDS011;71993;52.478;-1.918;2023-09-18T06:57:47;3.83;;;3.42;;
61330;SDS011;71993;52.478;-1.918;2023-09-18T07:00:32;4.25;;;3.60;;
61330;SDS011;71993;52.478;-1.918;2023-09-18T07:03:18;5.20;;;3.40;;
61330;SDS011;71993;52.478;-1.918;2023-09-18T07:06:04;4.57;;;3.28;;
61330;SDS011;71993;52.478;-1.918;2023-09-18T07:08:47;4.05;;;3.50;;
61330;SDS011;71993;52.478;-1.918;2023-09-18T07:11:31;3.47;;;3.17;;
61330;SDS011;71993;52.478;-1.918;2023-09-18T07:14:14;4.03;;;3.33;;
61330;SDS011;71993;52.478;-1.918;2023-09-18T07:16:58;5.55;;;3.60;;
61330;SDS011;71993;52.478;-1.918;2023-09-18T07:19:45;5.63;;;3.38;;
61330;SDS011;71993;52.478;-1.918;2023-09-18T07:22:28;3.83;;;3.38;;
61330;SDS011;71993;52.478;-1.918;2023-09-18T07:25:12;3.88;;;3.42;;
61330;SDS011;71993;52.478;-1.918;2023-09-18T07:27:56;3.45;;;3.13;;
61330;SDS011;71993;52.478;-1.918;2023-09-18T07:30:39;3.65;;;3.20;;
61330;SDS011;71993;52.478;-1.918;2023-09-18T07:33:24;4.28;;;3.17;;
61330;SDS011;71993;52.478;-1.918;2023-09-18T07:36:10;5.53;;;2.95;;
61330;SDS011;71993;52.478;-1.918;2023-09-18T07:38:55;3.47;;;3.17;;
61330;SDS011;71993;52.478;-1.918;2023-09-18T07:41:39;4.15;;;2.97;;
61330;SDS011;71993;52.478;-1.918;2023-09-18T07:44:23;3.25;;;2.95;;
61330;SDS011;71993;52.478;-1.918;2023-09-18T07:47:06;3.30;;;3.00;;
61330;SDS011;71993;52.478;-1.918;2023-09-18T07:49:38;3.58;;;2.80;;
61330;SDS011;71993;52.478;-1.918;2023-09-18T07:52:11;3.92;;;2.83;;
61330;SDS011;71993;52.478;-1.918;2023-09-18T07:54:43;3.05;;;2.67;;
61330;SDS011;71993;52.478;-1.918;2023-09-18T07:57:13;3.50;;;2.90;;
61330;SDS011;71993;52.478;-1.918;2023-09-18T07:59:46;3.30;;;2.85;;
61330;SDS011;71993;52.478;-1.918;2023-09-18T08:02:22;3.17;;;2.55;;
61330;SDS011;71993;52.478;-1.918;2023-09-18T08:04:56;3.22;;;2.65;;
61330;SDS011;71993;52.478;-1.918;2023-09-18T08:07:43;3.38;;;2.50;;
61330;SDS011;71993;52.478;-1.918;2023-09-18T08:13:11;2.92;;;2.63;;
61330;SDS011;71993;52.478;-1.918;2023-09-18T08:15:55;3.53;;;2.47;;
61330;SDS011;71993;52.478;-1.918;2023-09-18T08:18:38;3.40;;;2.78;;
61330;SDS011;71993;52.478;-1.918;2023-09-18T08:21:22;2.58;;;2.25;;
61330;SDS011;71993;52.478;-1.918;2023-09-18T08:24:09;3.03;;;2.30;;
61330;SDS011;71993;52.478;-1.918;2023-09-18T08:26:52;2.75;;;2.40;;
61330;SDS011;71993;52.478;-1.918;2023-09-18T08:29:36;4.75;;;2.35;;
61330;SDS011;71993;52.478;-1.918;2023-09-18T08:32:20;3.67;;;2.33;;
61330;SDS011;71993;52.478;-1.918;2023-09-18T08:35:04;2.75;;;2.30;;
61330;SDS011;71993;52.478;-1.918;2023-09-18T08:37:48;2.60;;;2.20;;
61330;SDS011;71993;52.478;-1.918;2023-09-18T08:40:35;3.20;;;2.30;;
61330;SDS011;71993;52.478;-1.918;2023-09-18T08:43:19;3.08;;;2.38;;
61330;SDS011;71993;52.478;-1.918;2023-09-18T08:46:03;2.95;;;2.20;;
61330;SDS011;71993;52.478;-1.918;2023-09-18T08:48:46;3.05;;;2.08;;
61330;SDS011;71993;52.478;-1.918;2023-09-18T08:51:31;2.40;;;2.03;;
61330;SDS011;71993;52.478;-1.918;2023-09-18T08:54:15;4.03;;;2.30;;
61330;SDS011;71993;52.478;-1.918;2023-09-18T08:57:01;3.35;;;2.08;;
61330;SDS011;71993;52.478;-1.918;2023-09-18T08:59:48;4.20;;;2.00;;
61330;SDS011;71993;52.478;-1.918;2023-09-18T09:02:32;3.75;;;2.08;;
61330;SDS011;71993;52.478;-1.918;2023-09-18T09:05:16;3.40;;;2.10;;
61330;SDS011;71993;52.478;-1.918;2023-09-18T09:08:00;3.45;;;2.00;;
61330;SDS011;71993;52.478;-1.918;2023-09-18T09:10:43;3.42;;;1.95;;
61330;SDS011;71993;52.478;-1.918;2023-09-18T09:13:17;2.78;;;1.98;;
61330;SDS011;71993;52.478;-1.918;2023-09-18T09:15:54;3.00;;;1.98;;
61330;SDS011;71993;52.478;-1.918;2023-09-18T09:18:27;3.03;;;1.90;;
61330;SDS011;71993;52.478;-1.918;2023-09-18T09:21:00;2.95;;;1.80;;
61330;SDS011;71993;52.478;-1.918;2023-09-18T09:23:44;2.60;;;2.03;;
61330;SDS011;71993;52.478;-1.918;2023-09-18T09:26:17;4.20;;;2.20;;
61330;SDS011;71993;52.478;-1.918;2023-09-18T09:28:59;2.67;;;2.08;;
61330;SDS011;71993;52.478;-1.918;2023-09-18T09:31:45;3.55;;;2.22;;
61330;SDS011;71993;52.478;-1.918;2023-09-18T09:34:24;2.42;;;1.80;;
61330;SDS011;71993;52.478;-1.918;2023-09-18T09:36:57;3.20;;;1.83;;
61330;SDS011;71993;52.478;-1.918;2023-09-18T09:39:30;2.70;;;1.95;;
61330;SDS011;71993;52.478;-1.918;2023-09-18T09:42:02;3.08;;;2.03;;
61330;SDS011;71993;52.478;-1.918;2023-09-18T09:44:35;4.22;;;2.10;;
61330;SDS011;71993;52.478;-1.918;2023-09-18T09:47:06;2.35;;;1.90;;
61330;SDS011;71993;52.478;-1.918;2023-09-18T09:49:44;2.55;;;1.88;;
61330;SDS011;71993;52.478;-1.918;2023-09-18T09:52:17;2.80;;;2.08;;
61330;SDS011;71993;52.478;-1.918;2023-09-18T09:54:50;4.18;;;2.38;;
61330;SDS011;71993;52.478;-1.918;2023-09-18T09:57:21;3.88;;;2.00;;
61330;SDS011;71993;52.478;-1.918;2023-09-18T09:59:54;2.50;;;2.00;;
61330;SDS011;71993;52.478;-1.918;2023-09-18T10:02:32;2.60;;;1.90;;
61330;SDS011;71993;52.478;-1.918;2023-09-18T10:05:17;3.33;;;1.92;;
61330;SDS011;71993;52.478;-1.918;2023-09-18T10:07:52;3.85;;;1.75;;
61330;SDS011;71993;52.478;-1.918;2023-09-18T10:10:29;3.33;;;1.92;;
61330;SDS011;71993;52.478;-1.918;2023-09-18T10:13:02;3.25;;;1.80;;
61330;SDS011;71993;52.478;-1.918;2023-09-18T10:15:38;3.15;;;2.00;;
61330;SDS011;71993;52.478;-1.918;2023-09-18T10:18:22;2.22;;;1.90;;
61330;SDS011;71993;52.478;-1.918;2023-09-18T10:20:55;3.38;;;2.08;;
61330;SDS011;71993;52.478;-1.918;2023-09-18T10:23:33;2.97;;;2.10;;
61330;SDS011;71993;52.478;-1.918;2023-09-18T10:26:04;4.50;;;2.13;;
61330;SDS011;71993;52.478;-1.918;2023-09-18T10:28:36;2.80;;;1.90;;
61330;SDS011;71993;52.478;-1.918;2023-09-18T10:31:09;3.80;;;1.80;;
61330;SDS011;71993;52.478;-1.918;2023-09-18T10:33:41;4.22;;;2.28;;
61330;SDS011;71993;52.478;-1.918;2023-09-18T10:36:12;2.75;;;2.00;;
61330;SDS011;71993;52.478;-1.918;2023-09-18T10:38:45;3.40;;;1.90;;
61330;SDS011;71993;52.478;-1.918;2023-09-18T10:41:17;2.58;;;1.70;;
61330;SDS011;71993;52.478;-1.918;2023-09-18T10:43:51;3.28;;;1.88;;
61330;SDS011;71993;52.478;-1.918;2023-09-18T10:46:27;2.60;;;1.70;;
61330;SDS011;71993;52.478;-1.918;2023-09-18T10:48:58;5.57;;;2.00;;
61330;SDS011;71993;52.478;-1.918;2023-09-18T10:51:30;8.93;;;2.05;;
61330;SDS011;71993;52.478;-1.918;2023-09-18T10:54:02;3.33;;;1.90;;
61330;SDS011;71993;52.478;-1.918;2023-09-18T10:56:32;3.25;;;1.80;;
61330;SDS011;71993;52.478;-1.918;2023-09-18T10:59:06;3.85;;;1.70;;
61330;SDS011;71993;52.478;-1.918;2023-09-18T11:01:53;3.92;;;1.80;;
61330;SDS011;71993;52.478;-1.918;2023-09-18T11:04:36;5.00;;;1.80;;
61330;SDS011;71993;52.478;-1.918;2023-09-18T11:07:07;6.40;;;2.08;;
61330;SDS011;71993;52.478;-1.918;2023-09-18T11:09:42;7.68;;;2.50;;
61330;SDS011;71993;52.478;-1.918;2023-09-18T11:12:14;15.30;;;2.95;;
61330;SDS011;71993;52.478;-1.918;2023-09-18T11:14:46;8.35;;;2.50;;
61330;SDS011;71993;52.478;-1.918;2023-09-18T11:17:35;6.88;;;2.40;;
61330;SDS011;71993;52.478;-1.918;2023-09-18T11:20:10;5.80;;;2.28;;
61330;SDS011;71993;52.478;-1.918;2023-09-18T11:22:48;5.97;;;2.00;;
61330;SDS011;71993;52.478;-1.918;2023-09-18T11:25:34;4.88;;;2.03;;
61330;SDS011;71993;52.478;-1.918;2023-09-18T11:28:05;4.93;;;2.22;;
61330;SDS011;71993;52.478;-1.918;2023-09-18T11:30:48;4.13;;;1.98;;
61330;SDS011;71993;52.478;-1.918;2023-09-18T11:33:32;3.67;;;2.00;;
61330;SDS011;71993;52.478;-1.918;2023-09-18T11:36:03;3.53;;;1.67;;
61330;SDS011;71993;52.478;-1.918;2023-09-18T11:38:36;3.33;;;1.80;;
61330;SDS011;71993;52.478;-1.918;2023-09-18T11:41:24;5.05;;;2.03;;
61330;SDS011;71993;52.478;-1.918;2023-09-18T11:46:44;3.00;;;1.55;;
61330;SDS011;71993;52.478;-1.918;2023-09-18T11:49:21;3.10;;;1.50;;
61330;SDS011;71993;52.478;-1.918;2023-09-18T11:51:54;2.22;;;1.40;;
61330;SDS011;71993;52.478;-1.918;2023-09-18T11:54:24;2.90;;;1.27;;
61330;SDS011;71993;52.478;-1.918;2023-09-18T11:56:55;3.72;;;2.25;;
61330;SDS011;71993;52.478;-1.918;2023-09-18T11:59:33;2.20;;;1.83;;
61330;SDS011;71993;52.478;-1.918;2023-09-18T12:02:03;3.80;;;2.00;;
61330;SDS011;71993;52.478;-1.918;2023-09-18T12:04:38;3.85;;;2.13;;
61330;SDS011;71993;52.478;-1.918;2023-09-18T12:07:09;5.88;;;3.67;;
61330;SDS011;71993;52.478;-1.918;2023-09-18T12:09:40;6.53;;;5.07;;
61330;SDS011;71993;52.478;-1.918;2023-09-18T12:12:10;7.22;;;5.45;;
61330;SDS011;71993;52.478;-1.918;2023-09-18T12:14:41;9.20;;;6.97;;
61330;SDS011;71993;52.478;-1.918;2023-09-18T12:17:14;8.68;;;6.15;;
61330;SDS011;71993;52.478;-1.918;2023-09-18T12:19:53;6.75;;;5.30;;
61330;SDS011;71993;52.478;-1.918;2023-09-18T12:22:24;6.88;;;5.28;;
61330;SDS011;71993;52.478;-1.918;2023-09-18T12:25:07;6.43;;;5.05;;
61330;SDS011;71993;52.478;-1.918;2023-09-18T12:27:39;6.70;;;5.00;;
61330;SDS011;71993;52.478;-1.918;2023-09-18T12:30:11;5.72;;;4.70;;
61330;SDS011;71993;52.478;-1.918;2023-09-18T12:32:43;5.93;;;3.80;;
61330;SDS011;71993;52.478;-1.918;2023-09-18T12:35:17;4.15;;;3.25;;
61330;SDS011;71993;52.478;-1.918;2023-09-18T12:37:48;5.15;;;3.20;;
61330;SDS011;71993;52.478;-1.918;2023-09-18T12:40:23;5.57;;;3.60;;
61330;SDS011;71993;52.478;-1.918;2023-09-18T12:42:53;6.15;;;3.03;;
61330;SDS011;71993;52.478;-1.918;2023-09-18T12:45:25;3.25;;;2.65;;
61330;SDS011;71993;52.478;-1.918;2023-09-18T12:47:57;5.15;;;2.85;;
61330;SDS011;71993;52.478;-1.918;2023-09-18T12:50:31;4.60;;;2.75;;
61330;SDS011;71993;52.478;-1.918;2023-09-18T12:53:09;5.28;;;2.70;;
61330;SDS011;71993;52.478;-1.918;2023-09-18T12:55:40;3.72;;;2.03;;
61330;SDS011;71993;52.478;-1.918;2023-09-18T12:58:11;3.42;;;2.17;;
61330;SDS011;71993;52.478;-1.918;2023-09-18T13:00:44;2.38;;;1.70;;
61330;SDS011;71993;52.478;-1.918;2023-09-18T13:03:12;2.78;;;1.92;;
61330;SDS011;71993;52.478;-1.918;2023-09-18T13:05:46;3.70;;;1.88;;
61330;SDS011;71993;52.478;-1.918;2023-09-18T13:08:21;3.75;;;1.63;;
61330;SDS011;71993;52.478;-1.918;2023-09-18T13:10:52;4.05;;;1.50;;
61330;SDS011;71993;52.478;-1.918;2023-09-18T13:13:22;3.60;;;1.42;;
61330;SDS011;71993;52.478;-1.918;2023-09-18T13:15:56;3.55;;;1.52;;
61330;SDS011;71993;52.478;-1.918;2023-09-18T13:18:27;1.98;;;1.30;;
61330;SDS011;71993;52.478;-1.918;2023-09-18T13:21:08;1.58;;;1.20;;
61330;SDS011;71993;52.478;-1.918;2023-09-18T13:23:38;3.03;;;1.60;;
61330;SDS011;71993;52.478;-1.918;2023-09-18T13:26:09;2.28;;;1.38;;
61330;SDS011;71993;52.478;-1.918;2023-09-18T13:28:39;1.92;;;1.10;;
61330;SDS011;71993;52.478;-1.918;2023-09-18T13:31:10;1.85;;;1.10;;
61330;SDS011;71993;52.478;-1.918;2023-09-18T13:33:40;1.33;;;0.80;;
61330;SDS011;71993;52.478;-1.918;2023-09-18T13:36:14;1.30;;;0.90;;
61330;SDS011;71993;52.478;-1.918;2023-09-18T13:38:45;1.02;;;0.80;;
61330;SDS011;71993;52.478;-1.918;2023-09-18T13:41:16;1.15;;;0.90;;
61330;SDS011;71993;52.478;-1.918;2023-09-18T13:43:46;1.48;;;0.75;;
61330;SDS011;71993;52.478;-1.918;2023-09-18T13:46:22;1.17;;;0.82;;
61330;SDS011;71993;52.478;-1.918;2023-09-18T13:48:55;1.77;;;0.80;;
61330;SDS011;71993;52.478;-1.918;2023-09-18T13:51:29;2.45;;;2.10;;
61330;SDS011;71993;52.478;-1.918;2023-09-18T13:54:01;1.65;;;0.90;;
61330;SDS011;71993;52.478;-1.918;2023-09-18T13:56:36;1.55;;;1.00;;
61330;SDS011;71993;52.478;-1.918;2023-09-18T13:59:07;1.48;;;1.00;;
61330;SDS011;71993;52.478;-1.918;2023-09-18T14:01:37;2.03;;;1.00;;
61330;SDS011;71993;52.478;-1.918;2023-09-18T14:04:08;1.42;;;1.10;;
61330;SDS011;71993;52.478;-1.918;2023-09-18T14:06:41;1.33;;;0.80;;
61330;SDS011;71993;52.478;-1.918;2023-09-18T14:09:12;1.50;;;0.90;;
61330;SDS011;71993;52.478;-1.918;2023-09-18T14:11:44;1.98;;;0.80;;
61330;SDS011;71993;52.478;-1.918;2023-09-18T14:14:15;1.20;;;0.80;;
61330;SDS011;71993;52.478;-1.918;2023-09-18T14:16:45;1.25;;;0.70;;
61330;SDS011;71993;52.478;-1.918;2023-09-18T14:19:17;1.27;;;0.70;;
61330;SDS011;71993;52.478;-1.918;2023-09-18T14:21:50;1.73;;;0.95;;
61330;SDS011;71993;52.478;-1.918;2023-09-18T14:24:21;1.35;;;0.75;;
61330;SDS011;71993;52.478;-1.918;2023-09-18T14:26:53;1.42;;;0.85;;
61330;SDS011;71993;52.478;-1.918;2023-09-18T14:29:23;1.55;;;0.85;;
61330;SDS011;71993;52.478;-1.918;2023-09-18T14:31:54;1.73;;;0.80;;
61330;SDS011;71993;52.478;-1.918;2023-09-18T14:34:25;2.30;;;0.80;;
61330;SDS011;71993;52.478;-1.918;2023-09-18T14:36:58;2.45;;;0.80;;
61330;SDS011;71993;52.478;-1.918;2023-09-18T14:39:28;1.25;;;0.75;;
61330;SDS011;71993;52.478;-1.918;2023-09-18T14:42:02;2.30;;;0.80;;
61330;SDS011;71993;52.478;-1.918;2023-09-18T14:44:32;3.15;;;1.08;;
61330;SDS011;71993;52.478;-1.918;2023-09-18T14:47:03;2.50;;;0.80;;
61330;SDS011;71993;52.478;-1.918;2023-09-18T14:49:34;1.50;;;0.70;;
61330;SDS011;71993;52.478;-1.918;2023-09-18T14:52:07;2.67;;;1.00;;
61330;SDS011;71993;52.478;-1.918;2023-09-18T14:54:39;2.38;;;1.20;;
61330;SDS011;71993;52.478;-1.918;2023-09-18T14:57:10;2.58;;;1.02;;
61330;SDS011;71993;52.478;-1.918;2023-09-18T14:59:41;1.90;;;1.00;;
61330;SDS011;71993;52.478;-1.918;2023-09-18T15:02:14;3.17;;;1.08;;
61330;SDS011;71993;52.478;-1.918;2023-09-18T15:04:45;3.20;;;1.05;;
61330;SDS011;71993;52.478;-1.918;2023-09-18T15:07:18;5.10;;;1.25;;
61330;SDS011;71993;52.478;-1.918;2023-09-18T15:09:49;3.88;;;1.10;;
61330;SDS011;71993;52.478;-1.918;2023-09-18T15:12:19;5.18;;;1.20;;
61330;SDS011;71993;52.478;-1.918;2023-09-18T15:14:50;4.60;;;1.20;;
61330;SDS011;71993;52.478;-1.918;2023-09-18T15:17:20;5.25;;;1.50;;
61330;SDS011;71993;52.478;-1.918;2023-09-18T15:19:52;3.85;;;1.20;;
61330;SDS011;71993;52.478;-1.918;2023-09-18T15:22:25;4.63;;;1.58;;
61330;SDS011;71993;52.478;-1.918;2023-09-18T15:24:56;4.28;;;1.33;;
61330;SDS011;71993;52.478;-1.918;2023-09-18T15:27:28;4.35;;;1.45;;